createdAt,value
2017-08-18T00:00:50.555Z,17.20
2017-08-18T00:03:18.067Z,17.10
2017-08-18T00:05:46.342Z,17.10
2017-08-18T00:08:14.660Z,17.00
2017-08-18T00:10:42.171Z,17.00
2017-08-18T00:13:10.449Z,17.00
2017-08-18T00:15:38.744Z,17.00
2017-08-18T00:18:06.267Z,17.00
2017-08-18T00:20:33.781Z,16.90
2017-08-18T00:23:01.324Z,16.90
2017-08-18T00:25:28.837Z,16.90
2017-08-18T00:27:56.337Z,16.90
2017-08-18T00:30:23.880Z,16.80
2017-08-18T00:32:52.198Z,16.70
2017-08-18T00:35:19.696Z,16.70
2017-08-18T00:37:47.215Z,16.80
2017-08-18T00:40:14.711Z,16.80
2017-08-18T00:42:42.222Z,16.80
2017-08-18T00:45:09.798Z,16.90
2017-08-18T00:47:37.314Z,16.90
2017-08-18T00:50:05.619Z,16.70
2017-08-18T00:52:33.111Z,16.60
2017-08-18T00:55:00.627Z,16.60
2017-08-18T00:57:28.153Z,16.50
2017-08-18T00:59:56.443Z,16.40
2017-08-18T01:02:23.994Z,16.40
2017-08-18T01:04:52.260Z,16.30
2017-08-18T01:07:19.782Z,16.30
2017-08-18T01:09:47.308Z,16.30
2017-08-18T01:12:14.823Z,16.30
2017-08-18T01:14:42.348Z,16.20
2017-08-18T01:17:09.863Z,16.20
2017-08-18T01:19:38.123Z,16.40
2017-08-18T01:22:05.672Z,16.30
2017-08-18T01:24:33.243Z,16.50
2017-08-18T01:27:00.744Z,16.40
2017-08-18T01:29:28.267Z,16.40
2017-08-18T01:31:56.532Z,16.50
2017-08-18T01:34:24.045Z,16.50
2017-08-18T01:36:51.573Z,16.50
2017-08-18T01:39:19.827Z,16.50
2017-08-18T01:41:47.341Z,16.50
2017-08-18T01:44:14.840Z,16.50
2017-08-18T01:46:42.372Z,16.60
2017-08-18T01:49:09.872Z,16.50
2017-08-18T01:51:38.149Z,16.50
2017-08-18T01:54:06.448Z,16.50
2017-08-18T01:56:33.967Z,16.50
2017-08-18T01:59:01.582Z,16.50
2017-08-18T02:01:29.080Z,16.50
2017-08-18T02:03:56.701Z,16.60
2017-08-18T02:06:24.230Z,16.50
2017-08-18T02:08:52.506Z,16.50
2017-08-18T02:11:20.914Z,16.50
2017-08-18T02:13:48.474Z,16.50
2017-08-18T02:16:15.992Z,16.60
2017-08-18T02:18:44.293Z,16.50
2017-08-18T02:21:11.787Z,16.40
2017-08-18T02:23:39.310Z,16.40
2017-08-18T02:26:06.881Z,16.30
2017-08-18T02:28:34.443Z,16.30
2017-08-18T02:31:01.955Z,16.30
2017-08-18T02:33:30.220Z,16.50
2017-08-18T02:35:57.756Z,16.50
2017-08-18T02:38:25.247Z,16.50
2017-08-18T02:40:53.542Z,16.40
2017-08-18T02:43:21.127Z,16.40
2017-08-18T02:45:48.638Z,16.40
2017-08-18T02:48:16.171Z,16.40
2017-08-18T02:50:43.692Z,16.40
2017-08-18T02:53:11.264Z,16.40
2017-08-18T02:55:38.806Z,16.40
2017-08-18T02:58:06.380Z,16.30
2017-08-18T03:00:33.871Z,16.30
2017-08-18T03:03:01.396Z,16.30
2017-08-18T03:05:28.895Z,16.40
2017-08-18T03:07:56.406Z,16.30
2017-08-18T03:10:23.972Z,16.30
2017-08-18T03:12:51.482Z,16.30
2017-08-18T03:15:19.091Z,16.30
2017-08-18T03:17:46.723Z,16.20
2017-08-18T03:20:14.238Z,16.30
2017-08-18T03:22:41.767Z,16.40
2017-08-18T03:25:09.277Z,16.50
2017-08-18T03:27:36.874Z,16.50
2017-08-18T03:30:04.401Z,16.50
2017-08-18T03:32:31.942Z,16.50
2017-08-18T03:35:00.212Z,16.60
2017-08-18T03:37:28.520Z,16.70
2017-08-18T03:39:56.051Z,16.70
2017-08-18T03:42:24.330Z,16.80
2017-08-18T03:44:52.621Z,16.80
2017-08-18T03:47:20.116Z,16.80
2017-08-18T03:49:47.655Z,16.90
2017-08-18T03:52:15.193Z,16.90
2017-08-18T03:54:43.470Z,16.80
2017-08-18T03:57:10.972Z,16.80
2017-08-18T03:59:38.616Z,16.90
2017-08-18T04:02:06.141Z,16.90
2017-08-18T04:04:34.414Z,16.90
2017-08-18T04:07:02.708Z,16.90
2017-08-18T04:09:30.212Z,16.90
2017-08-18T04:11:57.742Z,16.90
2017-08-18T04:14:25.301Z,17.00
2017-08-18T04:16:52.803Z,17.00
2017-08-18T04:19:20.319Z,17.00
2017-08-18T04:21:47.850Z,17.00
2017-08-18T04:24:15.374Z,17.10
2017-08-18T04:26:42.888Z,17.20
2017-08-18T04:29:10.388Z,17.20
2017-08-18T04:31:37.916Z,17.30
2017-08-18T04:34:05.437Z,17.30
2017-08-18T04:36:33.718Z,17.30
2017-08-18T04:39:01.247Z,17.30
2017-08-18T04:41:28.760Z,17.30
2017-08-18T04:43:56.260Z,17.30
2017-08-18T04:46:23.811Z,17.30
2017-08-18T04:48:51.323Z,17.20
2017-08-18T04:51:18.846Z,17.20
2017-08-18T04:53:47.168Z,17.20
2017-08-18T04:56:14.669Z,17.20
2017-08-18T04:58:42.172Z,17.20
2017-08-18T05:01:09.714Z,17.20
2017-08-18T05:03:37.971Z,17.20
2017-08-18T05:06:05.516Z,17.20
2017-08-18T05:08:33.026Z,17.20
2017-08-18T05:11:00.528Z,17.20
2017-08-18T05:13:28.060Z,17.20
2017-08-18T05:15:55.566Z,17.10
2017-08-18T05:18:23.914Z,17.10
2017-08-18T05:20:51.425Z,17.10
2017-08-18T05:23:18.915Z,17.10
2017-08-18T05:25:46.450Z,17.10
2017-08-18T05:28:13.979Z,17.10
2017-08-18T05:30:42.259Z,17.10
2017-08-18T05:33:10.572Z,17.10
2017-08-18T05:35:38.075Z,17.10
2017-08-18T05:38:05.590Z,17.10
2017-08-18T05:40:33.134Z,17.10
2017-08-18T05:43:00.655Z,17.10
2017-08-18T05:45:28.156Z,17.20
2017-08-18T05:47:55.680Z,17.20
2017-08-18T05:50:23.983Z,17.30
2017-08-18T05:52:51.518Z,17.20
2017-08-18T05:55:19.797Z,17.30
2017-08-18T05:57:48.101Z,17.40
2017-08-18T06:00:15.614Z,17.30
2017-08-18T06:02:43.108Z,17.40
2017-08-18T06:05:10.640Z,17.40
2017-08-18T06:07:38.960Z,17.30
2017-08-18T06:10:06.470Z,17.30
2017-08-18T06:12:33.984Z,17.30
2017-08-18T06:15:01.536Z,17.30
2017-08-18T06:17:29.074Z,17.30
2017-08-18T06:19:56.579Z,17.30
2017-08-18T06:22:24.117Z,17.30
2017-08-18T06:24:51.612Z,17.30
2017-08-18T06:27:19.108Z,17.30
2017-08-18T06:29:46.623Z,17.20
2017-08-18T06:32:14.120Z,17.20
2017-08-18T06:34:41.665Z,17.20
2017-08-18T06:37:09.220Z,17.20
2017-08-18T06:39:37.520Z,17.30
2017-08-18T06:42:05.046Z,17.30
2017-08-18T06:44:32.562Z,17.40
2017-08-18T06:47:00.101Z,17.50
2017-08-18T06:49:27.673Z,17.60
2017-08-18T06:51:55.172Z,17.70
2017-08-18T06:54:22.706Z,17.80
2017-08-18T06:56:50.214Z,17.80
2017-08-18T06:59:18.504Z,17.70
2017-08-18T07:01:46.009Z,17.70
2017-08-18T07:04:13.538Z,17.60
2017-08-18T07:06:41.100Z,17.60
2017-08-18T07:09:08.591Z,17.70
2017-08-18T07:11:36.216Z,17.60
2017-08-18T07:14:03.720Z,17.60
2017-08-18T07:16:31.230Z,17.60
2017-08-18T07:18:58.771Z,17.50
2017-08-18T07:21:26.283Z,17.60
2017-08-18T07:23:53.806Z,17.70
2017-08-18T07:26:21.304Z,17.80
2017-08-18T07:28:48.923Z,17.60
2017-08-18T07:31:16.429Z,17.60
2017-08-18T07:33:43.927Z,17.50
2017-08-18T07:36:11.447Z,17.50
2017-08-18T07:38:38.966Z,17.30
2017-08-18T07:41:06.482Z,17.30
2017-08-18T07:43:34.024Z,17.20
2017-08-18T07:46:01.520Z,17.10
2017-08-18T07:48:29.038Z,17.10
2017-08-18T07:50:56.590Z,17.00
2017-08-18T07:53:24.089Z,16.80
2017-08-18T07:55:51.588Z,16.70
2017-08-18T07:58:19.108Z,16.70
2017-08-18T08:00:46.607Z,16.70
2017-08-18T08:03:14.131Z,16.70
2017-08-18T08:05:41.650Z,16.80
2017-08-18T08:08:09.171Z,16.80
2017-08-18T08:10:36.700Z,16.90
2017-08-18T08:13:04.218Z,17.00
2017-08-18T08:15:31.715Z,17.10
2017-08-18T08:17:59.240Z,17.20
2017-08-18T08:20:26.739Z,17.10
2017-08-18T08:22:54.241Z,17.10
2017-08-18T08:25:21.764Z,17.10
2017-08-18T08:27:49.265Z,17.10
2017-08-18T08:30:16.817Z,17.10
2017-08-18T08:32:44.347Z,17.00
2017-08-18T08:35:11.857Z,17.10
2017-08-18T08:37:40.172Z,17.10
2017-08-18T08:40:07.709Z,17.10
2017-08-18T08:42:35.217Z,17.20
2017-08-18T08:45:02.716Z,17.10
2017-08-18T08:47:31.022Z,17.00
2017-08-18T08:49:58.546Z,16.90
2017-08-18T08:52:26.831Z,17.00
2017-08-18T08:54:55.134Z,17.10
2017-08-18T08:57:22.636Z,17.10
2017-08-18T08:59:50.137Z,17.10
2017-08-18T09:02:17.678Z,17.10
2017-08-18T09:04:45.954Z,17.30
2017-08-18T09:07:14.263Z,17.50
2017-08-18T09:09:41.822Z,17.50
2017-08-18T09:12:09.321Z,17.70
2017-08-18T09:14:36.838Z,17.90
2017-08-18T09:17:04.364Z,18.20
2017-08-18T09:19:32.646Z,18.90
2017-08-18T09:22:00.145Z,18.90
2017-08-18T09:24:27.691Z,19.20
2017-08-18T09:26:55.205Z,19.70
2017-08-18T09:29:23.467Z,20.70
2017-08-18T09:31:51.011Z,20.70
2017-08-18T09:34:18.507Z,20.90
2017-08-18T09:36:46.004Z,21.10
2017-08-18T09:39:13.536Z,21.20
2017-08-18T09:41:41.050Z,21.40
2017-08-18T09:44:08.558Z,21.50
2017-08-18T09:46:36.089Z,21.30
2017-08-18T09:49:15.431Z,21.10
2017-08-18T09:51:54.796Z,21.00
2017-08-18T09:54:34.194Z,21.50
2017-08-18T09:57:14.363Z,21.70
2017-08-18T09:59:42.628Z,22.10
2017-08-18T10:02:10.892Z,22.30
2017-08-18T10:04:38.457Z,22.30
2017-08-18T10:07:06.738Z,22.20
2017-08-18T10:09:34.244Z,22.10
2017-08-18T10:12:01.806Z,22.20
2017-08-18T10:14:29.318Z,22.40
2017-08-18T10:16:57.575Z,23.20
2017-08-18T10:19:25.190Z,23.20
2017-08-18T10:21:52.687Z,23.60
2017-08-18T10:24:20.198Z,24.10
2017-08-18T10:26:47.719Z,24.30
2017-08-18T10:29:15.327Z,24.10
2017-08-18T10:31:42.829Z,23.90
2017-08-18T10:34:10.366Z,23.60
2017-08-18T10:36:37.899Z,24.00
2017-08-18T10:39:05.409Z,24.20
2017-08-18T10:41:32.934Z,24.60
2017-08-18T10:44:00.477Z,24.90
2017-08-18T10:46:27.994Z,24.80
2017-08-18T10:48:56.298Z,24.60
2017-08-18T10:51:23.795Z,24.60
2017-08-18T10:53:51.306Z,24.40
2017-08-18T10:56:18.832Z,24.20
2017-08-18T10:58:46.332Z,23.70
2017-08-18T11:01:13.833Z,23.50
2017-08-18T11:03:41.461Z,23.10
2017-08-18T11:06:09.020Z,23.10
2017-08-18T11:08:36.520Z,22.90
2017-08-18T11:11:04.139Z,22.60
2017-08-18T11:13:31.650Z,22.80
2017-08-18T11:15:59.934Z,23.20
2017-08-18T11:18:27.464Z,23.20
2017-08-18T11:20:54.964Z,23.60
2017-08-18T11:23:22.460Z,23.90
2017-08-18T11:25:49.984Z,24.30
2017-08-18T11:28:17.494Z,24.20
2017-08-18T11:30:44.992Z,24.20
2017-08-18T11:33:13.298Z,24.30
2017-08-18T11:35:40.863Z,24.20
2017-08-18T11:38:08.365Z,24.30
2017-08-18T11:40:35.977Z,24.70
2017-08-18T11:43:03.480Z,24.90
2017-08-18T11:45:31.096Z,25.00
2017-08-18T11:47:58.654Z,24.70
2017-08-18T11:50:26.182Z,24.90
2017-08-18T11:52:54.445Z,24.70
2017-08-18T11:55:22.875Z,24.60
2017-08-18T11:57:50.380Z,24.50
2017-08-18T12:00:18.772Z,24.10
2017-08-18T12:02:47.184Z,24.10
2017-08-18T12:05:14.689Z,24.00
2017-08-18T12:07:42.197Z,24.20
2017-08-18T12:10:09.734Z,24.10
2017-08-18T12:12:37.255Z,24.10
2017-08-18T12:15:04.747Z,24.20
2017-08-18T12:17:32.285Z,24.20
2017-08-18T12:19:59.789Z,24.30
2017-08-18T12:22:27.288Z,23.90
2017-08-18T12:24:54.823Z,23.80
2017-08-18T12:27:22.320Z,23.70
2017-08-18T12:29:49.842Z,23.80
2017-08-18T12:32:17.363Z,24.00
2017-08-18T12:34:44.878Z,24.00
2017-08-18T12:37:12.390Z,23.90
2017-08-18T12:39:39.931Z,23.70
2017-08-18T12:42:07.427Z,23.60
2017-08-18T12:44:34.952Z,23.60
2017-08-18T12:47:02.531Z,23.70
2017-08-18T12:49:30.062Z,24.10
2017-08-18T12:51:57.606Z,24.40
2017-08-18T12:54:25.099Z,24.60
2017-08-18T12:56:52.600Z,24.70
2017-08-18T12:59:20.125Z,24.50
2017-08-18T13:01:47.629Z,24.50
2017-08-18T13:04:15.130Z,25.00
2017-08-18T13:06:42.644Z,25.00
2017-08-18T13:09:10.163Z,25.00
2017-08-18T13:11:37.680Z,25.00
2017-08-18T13:14:05.994Z,25.10
2017-08-18T13:16:33.542Z,25.10
2017-08-18T13:19:01.052Z,24.70
2017-08-18T13:21:28.556Z,24.20
2017-08-18T13:23:56.124Z,23.80
2017-08-18T13:26:23.621Z,23.50
2017-08-18T13:28:51.142Z,23.50
2017-08-18T13:31:18.661Z,23.20
2017-08-18T13:33:46.160Z,23.10
2017-08-18T13:36:13.684Z,23.00
2017-08-18T13:38:41.202Z,22.70
2017-08-18T13:41:08.696Z,22.50
2017-08-18T13:43:36.238Z,22.30
2017-08-18T13:46:03.732Z,22.30
2017-08-18T13:48:31.246Z,22.20
2017-08-18T13:50:58.772Z,22.10
2017-08-18T13:53:26.279Z,22.00
2017-08-18T13:55:53.812Z,21.90
2017-08-18T13:58:21.308Z,22.00
2017-08-18T14:00:49.567Z,21.90
2017-08-18T14:03:17.859Z,21.80
2017-08-18T14:05:45.364Z,21.80
2017-08-18T14:08:12.882Z,21.80
2017-08-18T14:10:40.434Z,21.80
2017-08-18T14:13:08.709Z,21.80
2017-08-18T14:15:36.221Z,21.80
2017-08-18T14:18:03.762Z,21.70
2017-08-18T14:20:31.259Z,21.80
2017-08-18T14:22:58.771Z,21.80
2017-08-18T14:25:31.992Z,21.80
2017-08-18T14:27:59.524Z,22.00
2017-08-18T14:30:27.020Z,22.00
2017-08-18T14:32:54.535Z,22.20
2017-08-18T14:35:22.099Z,22.40
2017-08-18T14:37:49.596Z,22.60
2017-08-18T14:40:17.113Z,22.80
2017-08-18T14:42:44.612Z,23.00
2017-08-18T14:45:12.132Z,23.00
2017-08-18T14:47:39.632Z,22.90
2017-08-18T14:50:07.155Z,22.80
2017-08-18T14:52:34.675Z,22.80
2017-08-18T14:55:02.173Z,22.70
2017-08-18T14:57:29.744Z,22.50
2017-08-18T14:59:57.251Z,22.30
2017-08-18T15:02:24.784Z,22.10
2017-08-18T15:04:52.299Z,22.10
2017-08-18T15:07:19.873Z,22.10
2017-08-18T15:09:47.376Z,22.10
2017-08-18T15:12:15.696Z,21.90
2017-08-18T15:14:43.212Z,21.90
2017-08-18T15:17:11.494Z,21.80
2017-08-18T15:19:39.784Z,21.70
2017-08-18T15:22:07.291Z,21.60
2017-08-18T15:24:34.806Z,21.60
2017-08-18T15:27:02.332Z,21.50
2017-08-18T15:29:29.832Z,21.30
2017-08-18T15:31:57.378Z,21.10
2017-08-18T15:34:24.906Z,21.00
2017-08-18T15:36:52.409Z,20.90
2017-08-18T15:39:19.958Z,20.80
2017-08-18T15:41:47.464Z,20.70
2017-08-18T15:44:14.996Z,20.60
2017-08-18T15:46:42.515Z,20.60
2017-08-18T15:49:10.306Z,20.60
2017-08-18T15:51:38.005Z,20.50
2017-08-18T15:54:05.526Z,20.40
2017-08-18T15:56:33.052Z,20.30
2017-08-18T15:59:00.552Z,20.20
2017-08-18T16:01:28.080Z,20.10
2017-08-18T16:03:55.604Z,20.00
2017-08-18T16:06:23.104Z,19.90
2017-08-18T16:08:50.635Z,19.90
2017-08-18T16:11:18.895Z,19.60
2017-08-18T16:13:46.433Z,19.60
2017-08-18T16:16:13.937Z,19.60
2017-08-18T16:18:42.250Z,19.30
2017-08-18T16:21:09.766Z,19.30
2017-08-18T16:23:38.027Z,19.10
2017-08-18T16:26:05.547Z,19.10
2017-08-18T16:28:33.043Z,19.00
2017-08-18T16:31:00.536Z,18.90
2017-08-18T16:33:28.226Z,18.80
2017-08-18T16:35:55.745Z,18.70
2017-08-18T16:38:23.274Z,18.70
2017-08-18T16:40:50.800Z,18.60
2017-08-18T16:43:18.315Z,18.50
2017-08-18T16:45:46.637Z,18.40
2017-08-18T16:48:15.047Z,18.40
2017-08-18T16:50:42.545Z,18.40
2017-08-18T16:53:10.058Z,18.50
2017-08-18T16:55:37.576Z,18.40
2017-08-18T16:58:05.072Z,18.40
2017-08-18T17:00:32.599Z,18.30
2017-08-18T17:03:00.118Z,18.30
2017-08-18T17:05:28.398Z,18.20
2017-08-18T17:07:55.993Z,18.20
2017-08-18T17:10:23.511Z,18.20
2017-08-18T17:12:51.826Z,18.10
2017-08-18T17:15:19.351Z,18.10
2017-08-18T17:17:46.879Z,18.10
2017-08-18T17:20:14.372Z,18.10
2017-08-18T17:22:42.654Z,18.10
2017-08-18T17:25:10.237Z,18.00
2017-08-18T17:27:37.755Z,18.10
2017-08-18T17:30:05.276Z,18.10
2017-08-18T17:32:32.776Z,18.10
2017-08-18T17:35:00.313Z,18.00
2017-08-18T17:37:27.931Z,17.90
2017-08-18T17:39:55.442Z,17.80
2017-08-18T17:42:23.049Z,17.80
2017-08-18T17:44:50.543Z,17.70
2017-08-18T17:47:18.174Z,17.70
2017-08-18T17:49:45.672Z,17.60
2017-08-18T17:52:13.167Z,17.50
2017-08-18T17:54:40.741Z,17.40
2017-08-18T17:57:08.254Z,17.40
2017-08-18T17:59:35.861Z,17.30
2017-08-18T18:02:03.374Z,17.20
2017-08-18T18:04:31.635Z,17.10
2017-08-18T18:06:59.175Z,17.10
2017-08-18T18:09:26.672Z,17.00
2017-08-18T18:11:54.978Z,16.90
2017-08-18T18:14:22.498Z,16.90
2017-08-18T18:16:50.105Z,16.90
2017-08-18T18:19:17.634Z,16.80
2017-08-18T18:21:45.900Z,16.70
2017-08-18T18:24:13.419Z,16.70
2017-08-18T18:26:40.955Z,16.70
2017-08-18T18:29:08.515Z,16.70
2017-08-18T18:31:36.012Z,16.70
2017-08-18T18:34:03.516Z,16.60
2017-08-18T18:36:31.054Z,16.60
2017-08-18T18:38:59.324Z,16.60
2017-08-18T18:41:26.878Z,16.60
2017-08-18T18:43:54.371Z,16.60
2017-08-18T18:46:21.863Z,16.50
2017-08-18T18:48:49.503Z,16.50
2017-08-18T18:51:17.027Z,16.60
2017-08-18T18:53:45.343Z,16.50
2017-08-18T18:56:12.860Z,16.50
2017-08-18T18:58:41.173Z,16.50
2017-08-18T19:01:08.717Z,16.50
2017-08-18T19:03:36.229Z,16.50
2017-08-18T19:06:03.791Z,16.50
2017-08-18T19:08:31.411Z,16.50
2017-08-18T19:10:58.939Z,16.50
2017-08-18T19:13:26.431Z,16.40
2017-08-18T19:15:53.946Z,16.40
2017-08-18T19:18:21.547Z,16.40
2017-08-18T19:20:49.070Z,16.40
2017-08-18T19:23:16.609Z,16.40
2017-08-18T19:25:44.107Z,16.40
2017-08-18T19:28:11.622Z,16.30
2017-08-18T19:30:39.162Z,16.30
2017-08-18T19:33:06.674Z,16.20
2017-08-18T19:35:34.255Z,16.20
2017-08-18T19:38:01.788Z,16.20
2017-08-18T19:40:29.287Z,16.20
2017-08-18T19:42:56.801Z,16.20
2017-08-18T19:45:24.334Z,16.20
2017-08-18T19:47:51.946Z,16.10
2017-08-18T19:50:19.495Z,16.20
2017-08-18T19:52:47.030Z,16.20
2017-08-18T19:55:14.626Z,16.20
2017-08-18T19:57:42.189Z,16.20
2017-08-18T20:00:09.702Z,16.20
2017-08-18T20:02:38.010Z,16.30
2017-08-18T20:05:05.530Z,16.30
2017-08-18T20:07:33.051Z,16.40
2017-08-18T20:10:00.576Z,16.50
2017-08-18T20:12:28.096Z,16.50
2017-08-18T20:14:55.628Z,16.50
2017-08-18T20:17:23.139Z,16.50
2017-08-18T20:19:50.658Z,16.50
2017-08-18T20:22:18.180Z,16.50
2017-08-18T20:24:45.687Z,16.40
2017-08-18T20:27:13.234Z,16.40
2017-08-18T20:29:40.735Z,16.40
2017-08-18T20:32:08.255Z,16.40
2017-08-18T20:34:35.798Z,16.30
2017-08-18T20:37:03.295Z,16.40
2017-08-18T20:39:30.818Z,16.40
2017-08-18T20:41:58.348Z,16.40
2017-08-18T20:44:25.851Z,16.40
2017-08-18T20:46:53.370Z,16.40
2017-08-18T20:49:20.927Z,16.40
2017-08-18T20:51:48.427Z,16.40
2017-08-18T20:54:15.947Z,16.40
2017-08-18T20:56:43.486Z,16.40
2017-08-18T20:59:11.012Z,16.30
2017-08-18T21:01:38.562Z,16.30
2017-08-18T21:04:06.063Z,16.30
2017-08-18T21:06:33.583Z,16.30
2017-08-18T21:09:01.084Z,16.30
2017-08-18T21:11:28.616Z,16.30
2017-08-18T21:13:57.257Z,16.30
2017-08-18T21:16:24.810Z,16.30
2017-08-18T21:18:52.328Z,16.30
2017-08-18T21:21:19.835Z,16.40
2017-08-18T21:23:47.364Z,16.40
2017-08-18T21:26:14.873Z,16.40
2017-08-18T21:28:42.404Z,16.40
2017-08-18T21:31:09.932Z,16.40
2017-08-18T21:33:37.447Z,16.40
2017-08-18T21:36:04.970Z,16.40
2017-08-18T21:38:32.492Z,16.30
2017-08-18T21:41:00.768Z,16.20
2017-08-18T21:43:29.078Z,15.90
2017-08-18T21:45:56.579Z,15.90
2017-08-18T21:48:24.091Z,15.10
2017-08-18T21:50:51.616Z,14.50
2017-08-18T21:53:19.875Z,14.00
2017-08-18T21:55:48.187Z,13.90
2017-08-18T21:58:15.693Z,13.90
2017-08-18T22:00:43.201Z,13.90
2017-08-18T22:03:10.724Z,13.90
2017-08-18T22:05:38.996Z,13.80
2017-08-18T22:08:07.136Z,13.80
2017-08-18T22:10:35.497Z,13.70
2017-08-18T22:13:03.018Z,13.70
2017-08-18T22:15:31.312Z,13.60
2017-08-18T22:17:58.813Z,13.60
2017-08-18T22:20:26.334Z,13.60
2017-08-18T22:22:53.864Z,13.50
2017-08-18T22:25:22.150Z,13.50
2017-08-18T22:27:50.416Z,13.40
2017-08-18T22:30:18.737Z,13.40
2017-08-18T22:32:46.240Z,13.40
2017-08-18T22:35:13.737Z,13.40
2017-08-18T22:37:41.263Z,13.30
2017-08-18T22:40:09.532Z,13.30
2017-08-18T22:42:37.063Z,13.20
2017-08-18T22:45:04.602Z,13.20
2017-08-18T22:47:32.104Z,13.10
2017-08-18T22:49:59.650Z,13.00
2017-08-18T22:52:27.151Z,12.90
2017-08-18T22:54:54.664Z,12.80
2017-08-18T22:57:22.211Z,12.70
2017-08-18T22:59:49.731Z,12.70
2017-08-18T23:02:17.245Z,12.60
2017-08-18T23:04:44.780Z,12.60
2017-08-18T23:07:12.284Z,12.50
2017-08-18T23:09:40.571Z,12.40
2017-08-18T23:12:08.108Z,12.40
2017-08-18T23:14:36.389Z,12.30
2017-08-18T23:17:03.907Z,12.30
2017-08-18T23:19:31.403Z,12.20
2017-08-18T23:21:59.713Z,12.40
2017-08-18T23:24:27.291Z,12.40
2017-08-18T23:26:54.830Z,12.50
2017-08-18T23:29:22.359Z,12.60
2017-08-18T23:31:49.874Z,12.80
2017-08-18T23:34:17.385Z,12.90
2017-08-18T23:36:45.805Z,13.10
2017-08-18T23:39:13.318Z,13.10
2017-08-18T23:41:41.595Z,13.30
2017-08-18T23:44:09.887Z,13.40
2017-08-18T23:46:37.476Z,13.40
2017-08-18T23:49:04.972Z,13.50
2017-08-18T23:51:32.594Z,13.50
2017-08-18T23:54:00.128Z,13.50
2017-08-18T23:56:27.663Z,13.50
2017-08-18T23:58:55.194Z,13.50
